sensor_id;sensor_type;location;lat;lon;timestamp;P1;durP1;ratioP1;P2;durP2;ratioP2
50880;SDS011;36858;47.832;-3.800;2022-09-01T00:02:28;6.07;;;2.90;;
50880;SDS011;36858;47.832;-3.800;2022-09-01T00:04:55;6.97;;;3.23;;
50880;SDS011;36858;47.832;-3.800;2022-09-01T00:07:26;7.63;;;3.27;;
50880;SDS011;36858;47.832;-3.800;2022-09-01T00:09:56;6.50;;;3.33;;
50880;SDS011;36858;47.832;-3.800;2022-09-01T00:12:24;7.40;;;3.40;;
50880;SDS011;36858;47.832;-3.800;2022-09-01T00:14:51;5.03;;;3.20;;
50880;SDS011;36858;47.832;-3.800;2022-09-01T00:17:19;4.63;;;2.80;;
50880;SDS011;36858;47.832;-3.800;2022-09-01T00:19:46;6.67;;;3.30;;
50880;SDS011;36858;47.832;-3.800;2022-09-01T00:22:13;4.17;;;3.03;;
50880;SDS011;36858;47.832;-3.800;2022-09-01T00:24:40;11.40;;;3.13;;
50880;SDS011;36858;47.832;-3.800;2022-09-01T00:27:07;3.63;;;2.80;;
50880;SDS011;36858;47.832;-3.800;2022-09-01T00:29:34;6.53;;;2.97;;
50880;SDS011;36858;47.832;-3.800;2022-09-01T00:32:01;6.00;;;3.13;;
50880;SDS011;36858;47.832;-3.800;2022-09-01T00:34:28;4.63;;;3.07;;
50880;SDS011;36858;47.832;-3.800;2022-09-01T00:36:55;6.50;;;3.43;;
50880;SDS011;36858;47.832;-3.800;2022-09-01T00:39:22;3.30;;;2.93;;
50880;SDS011;36858;47.832;-3.800;2022-09-01T00:41:50;4.77;;;3.03;;
50880;SDS011;36858;47.832;-3.800;2022-09-01T00:44:19;7.33;;;2.83;;
50880;SDS011;36858;47.832;-3.800;2022-09-01T00:46:55;11.27;;;3.27;;
50880;SDS011;36858;47.832;-3.800;2022-09-01T00:49:28;6.73;;;3.17;;
50880;SDS011;36858;47.832;-3.800;2022-09-01T00:52:43;5.50;;;3.10;;
50880;SDS011;36858;47.832;-3.800;2022-09-01T00:55:12;7.03;;;3.53;;
50880;SDS011;36858;47.832;-3.800;2022-09-01T00:57:42;6.60;;;3.30;;
50880;SDS011;36858;47.832;-3.800;2022-09-01T01:00:16;6.70;;;2.90;;
50880;SDS011;36858;47.832;-3.800;2022-09-01T01:02:49;7.77;;;3.17;;
50880;SDS011;36858;47.832;-3.800;2022-09-01T01:05:22;9.97;;;3.33;;
50880;SDS011;36858;47.832;-3.800;2022-09-01T01:07:56;9.07;;;3.27;;
50880;SDS011;36858;47.832;-3.800;2022-09-01T01:10:23;7.80;;;2.70;;
50880;SDS011;36858;47.832;-3.800;2022-09-01T01:12:51;5.13;;;2.90;;
50880;SDS011;36858;47.832;-3.800;2022-09-01T01:15:19;4.93;;;2.47;;
50880;SDS011;36858;47.832;-3.800;2022-09-01T01:17:46;5.07;;;3.10;;
50880;SDS011;36858;47.832;-3.800;2022-09-01T01:20:14;7.90;;;3.07;;
50880;SDS011;36858;47.832;-3.800;2022-09-01T01:25:53;3.97;;;2.67;;
50880;SDS011;36858;47.832;-3.800;2022-09-01T01:28:24;7.30;;;2.90;;
50880;SDS011;36858;47.832;-3.800;2022-09-01T01:31:03;8.03;;;3.40;;
50880;SDS011;36858;47.832;-3.800;2022-09-01T01:33:52;5.13;;;3.13;;
50880;SDS011;36858;47.832;-3.800;2022-09-01T01:36:28;5.37;;;3.07;;
50880;SDS011;36858;47.832;-3.800;2022-09-01T01:39:05;5.43;;;2.90;;
50880;SDS011;36858;47.832;-3.800;2022-09-01T01:41:35;12.23;;;3.50;;
50880;SDS011;36858;47.832;-3.800;2022-09-01T01:44:06;5.87;;;3.07;;
50880;SDS011;36858;47.832;-3.800;2022-09-01T01:46:35;6.97;;;3.00;;
50880;SDS011;36858;47.832;-3.800;2022-09-01T01:49:02;4.10;;;3.23;;
50880;SDS011;36858;47.832;-3.800;2022-09-01T01:51:29;7.60;;;3.30;;
50880;SDS011;36858;47.832;-3.800;2022-09-01T01:53:58;7.50;;;3.03;;
50880;SDS011;36858;47.832;-3.800;2022-09-01T01:56:31;6.27;;;2.80;;
50880;SDS011;36858;47.832;-3.800;2022-09-01T01:58:59;6.73;;;3.00;;
50880;SDS011;36858;47.832;-3.800;2022-09-01T02:01:28;3.93;;;3.23;;
50880;SDS011;36858;47.832;-3.800;2022-09-01T02:03:58;6.37;;;3.03;;
50880;SDS011;36858;47.832;-3.800;2022-09-01T02:06:26;5.27;;;2.43;;
50880;SDS011;36858;47.832;-3.800;2022-09-01T02:08:54;4.23;;;2.53;;
50880;SDS011;36858;47.832;-3.800;2022-09-01T02:11:24;4.10;;;2.77;;
50880;SDS011;36858;47.832;-3.800;2022-09-01T02:13:52;6.27;;;3.20;;
50880;SDS011;36858;47.832;-3.800;2022-09-01T02:16:23;7.50;;;2.90;;
50880;SDS011;36858;47.832;-3.800;2022-09-01T02:18:51;5.43;;;2.70;;
50880;SDS011;36858;47.832;-3.800;2022-09-01T02:21:20;3.90;;;2.83;;
50880;SDS011;36858;47.832;-3.800;2022-09-01T02:23:50;5.37;;;2.97;;
50880;SDS011;36858;47.832;-3.800;2022-09-01T02:26:27;6.07;;;2.73;;
50880;SDS011;36858;47.832;-3.800;2022-09-01T02:28:59;4.60;;;2.50;;
50880;SDS011;36858;47.832;-3.800;2022-09-01T02:31:33;6.60;;;3.07;;
50880;SDS011;36858;47.832;-3.800;2022-09-01T02:34:05;5.77;;;2.53;;
50880;SDS011;36858;47.832;-3.800;2022-09-01T02:36:36;9.07;;;3.47;;
50880;SDS011;36858;47.832;-3.800;2022-09-01T02:39:07;8.27;;;3.57;;
50880;SDS011;36858;47.832;-3.800;2022-09-01T02:41:36;10.73;;;3.73;;
50880;SDS011;36858;47.832;-3.800;2022-09-01T02:44:03;9.63;;;4.17;;
50880;SDS011;36858;47.832;-3.800;2022-09-01T02:46:44;6.10;;;3.33;;
50880;SDS011;36858;47.832;-3.800;2022-09-01T02:49:13;5.43;;;3.03;;
50880;SDS011;36858;47.832;-3.800;2022-09-01T02:51:44;5.83;;;3.30;;
50880;SDS011;36858;47.832;-3.800;2022-09-01T02:54:14;8.07;;;3.07;;
50880;SDS011;36858;47.832;-3.800;2022-09-01T02:56:44;5.70;;;3.07;;
50880;SDS011;36858;47.832;-3.800;2022-09-01T02:59:14;6.53;;;3.50;;
50880;SDS011;36858;47.832;-3.800;2022-09-01T03:01:41;5.87;;;3.50;;
50880;SDS011;36858;47.832;-3.800;2022-09-01T03:04:10;5.40;;;3.70;;
50880;SDS011;36858;47.832;-3.800;2022-09-01T03:06:37;8.47;;;3.87;;
50880;SDS011;36858;47.832;-3.800;2022-09-01T03:09:05;6.10;;;3.70;;
50880;SDS011;36858;47.832;-3.800;2022-09-01T03:11:37;5.50;;;3.77;;
50880;SDS011;36858;47.832;-3.800;2022-09-01T03:14:04;8.13;;;3.80;;
50880;SDS011;36858;47.832;-3.800;2022-09-01T03:16:33;5.60;;;3.83;;
50880;SDS011;36858;47.832;-3.800;2022-09-01T03:19:00;6.30;;;3.67;;
50880;SDS011;36858;47.832;-3.800;2022-09-01T03:21:29;5.50;;;3.43;;
50880;SDS011;36858;47.832;-3.800;2022-09-01T03:23:57;5.90;;;3.63;;
50880;SDS011;36858;47.832;-3.800;2022-09-01T03:26:27;6.40;;;3.70;;
50880;SDS011;36858;47.832;-3.800;2022-09-01T03:28:55;6.97;;;3.63;;
50880;SDS011;36858;47.832;-3.800;2022-09-01T03:31:22;4.23;;;3.33;;
50880;SDS011;36858;47.832;-3.800;2022-09-01T03:33:56;6.67;;;3.80;;
50880;SDS011;36858;47.832;-3.800;2022-09-01T03:36:24;4.83;;;3.33;;
50880;SDS011;36858;47.832;-3.800;2022-09-01T03:38:51;5.20;;;3.67;;
50880;SDS011;36858;47.832;-3.800;2022-09-01T03:41:20;8.33;;;3.83;;
50880;SDS011;36858;47.832;-3.800;2022-09-01T03:43:50;7.63;;;4.10;;
50880;SDS011;36858;47.832;-3.800;2022-09-01T03:46:21;5.50;;;3.37;;
50880;SDS011;36858;47.832;-3.800;2022-09-01T03:48:51;5.43;;;3.07;;
50880;SDS011;36858;47.832;-3.800;2022-09-01T03:51:21;4.93;;;3.37;;
50880;SDS011;36858;47.832;-3.800;2022-09-01T03:53:50;6.20;;;3.70;;
50880;SDS011;36858;47.832;-3.800;2022-09-01T03:56:23;6.03;;;3.43;;
50880;SDS011;36858;47.832;-3.800;2022-09-01T03:58:54;7.57;;;3.80;;
50880;SDS011;36858;47.832;-3.800;2022-09-01T04:01:23;5.50;;;3.80;;
50880;SDS011;36858;47.832;-3.800;2022-09-01T04:03:51;5.77;;;3.60;;
50880;SDS011;36858;47.832;-3.800;2022-09-01T04:06:19;6.30;;;3.53;;
50880;SDS011;36858;47.832;-3.800;2022-09-01T04:08:50;7.50;;;3.70;;
50880;SDS011;36858;47.832;-3.800;2022-09-01T04:11:23;9.57;;;3.80;;
50880;SDS011;36858;47.832;-3.800;2022-09-01T04:13:51;8.07;;;3.87;;
50880;SDS011;36858;47.832;-3.800;2022-09-01T04:16:21;5.37;;;3.57;;
50880;SDS011;36858;47.832;-3.800;2022-09-01T04:19:09;6.23;;;3.63;;
50880;SDS011;36858;47.832;-3.800;2022-09-01T04:21:46;5.70;;;3.63;;
50880;SDS011;36858;47.832;-3.800;2022-09-01T04:24:16;6.13;;;3.10;;
50880;SDS011;36858;47.832;-3.800;2022-09-01T04:26:44;6.40;;;3.80;;
50880;SDS011;36858;47.832;-3.800;2022-09-01T04:29:17;3.93;;;3.27;;
50880;SDS011;36858;47.832;-3.800;2022-09-01T04:31:44;6.17;;;3.23;;
50880;SDS011;36858;47.832;-3.800;2022-09-01T04:34:14;6.30;;;3.43;;
50880;SDS011;36858;47.832;-3.800;2022-09-01T04:36:42;5.93;;;3.03;;
50880;SDS011;36858;47.832;-3.800;2022-09-01T04:39:10;8.67;;;3.07;;
50880;SDS011;36858;47.832;-3.800;2022-09-01T04:41:42;5.10;;;3.33;;
50880;SDS011;36858;47.832;-3.800;2022-09-01T04:44:12;8.60;;;3.33;;
50880;SDS011;36858;47.832;-3.800;2022-09-01T04:46:42;8.53;;;3.07;;
50880;SDS011;36858;47.832;-3.800;2022-09-01T04:49:12;7.80;;;3.63;;
50880;SDS011;36858;47.832;-3.800;2022-09-01T04:51:46;3.60;;;2.57;;
50880;SDS011;36858;47.832;-3.800;2022-09-01T04:54:19;8.30;;;3.43;;
50880;SDS011;36858;47.832;-3.800;2022-09-01T04:56:49;4.80;;;3.30;;
50880;SDS011;36858;47.832;-3.800;2022-09-01T04:59:19;4.27;;;3.03;;
50880;SDS011;36858;47.832;-3.800;2022-09-01T05:01:48;3.80;;;2.80;;
50880;SDS011;36858;47.832;-3.800;2022-09-01T05:04:23;5.33;;;3.33;;
50880;SDS011;36858;47.832;-3.800;2022-09-01T05:06:56;4.90;;;2.90;;
50880;SDS011;36858;47.832;-3.800;2022-09-01T05:09:33;7.30;;;3.30;;
50880;SDS011;36858;47.832;-3.800;2022-09-01T05:12:04;5.27;;;3.33;;
50880;SDS011;36858;47.832;-3.800;2022-09-01T05:14:41;5.80;;;3.13;;
50880;SDS011;36858;47.832;-3.800;2022-09-01T05:17:10;6.10;;;3.60;;
50880;SDS011;36858;47.832;-3.800;2022-09-01T05:19:38;3.03;;;2.70;;
50880;SDS011;36858;47.832;-3.800;2022-09-01T05:22:06;4.77;;;3.40;;
50880;SDS011;36858;47.832;-3.800;2022-09-01T05:24:36;6.63;;;2.97;;
50880;SDS011;36858;47.832;-3.800;2022-09-01T05:27:07;5.00;;;2.90;;
50880;SDS011;36858;47.832;-3.800;2022-09-01T05:29:36;7.13;;;3.27;;
50880;SDS011;36858;47.832;-3.800;2022-09-01T05:32:04;5.70;;;3.57;;
50880;SDS011;36858;47.832;-3.800;2022-09-01T05:34:34;10.17;;;4.03;;
50880;SDS011;36858;47.832;-3.800;2022-09-01T05:37:03;8.40;;;3.90;;
50880;SDS011;36858;47.832;-3.800;2022-09-01T05:39:31;5.70;;;3.60;;
50880;SDS011;36858;47.832;-3.800;2022-09-01T05:41:58;7.13;;;3.30;;
50880;SDS011;36858;47.832;-3.800;2022-09-01T05:44:26;5.10;;;3.77;;
50880;SDS011;36858;47.832;-3.800;2022-09-01T05:46:54;3.87;;;3.27;;
50880;SDS011;36858;47.832;-3.800;2022-09-01T05:49:25;5.93;;;3.57;;
50880;SDS011;36858;47.832;-3.800;2022-09-01T05:51:53;6.77;;;4.10;;
50880;SDS011;36858;47.832;-3.800;2022-09-01T05:54:24;4.17;;;2.60;;
50880;SDS011;36858;47.832;-3.800;2022-09-01T05:56:53;6.63;;;3.10;;
50880;SDS011;36858;47.832;-3.800;2022-09-01T05:59:38;6.33;;;3.30;;
50880;SDS011;36858;47.832;-3.800;2022-09-01T06:02:06;4.13;;;2.90;;
50880;SDS011;36858;47.832;-3.800;2022-09-01T06:04:36;6.10;;;2.87;;
50880;SDS011;36858;47.832;-3.800;2022-09-01T06:07:06;5.83;;;2.73;;
50880;SDS011;36858;47.832;-3.800;2022-09-01T06:09:41;3.10;;;2.80;;
50880;SDS011;36858;47.832;-3.800;2022-09-01T06:12:12;4.73;;;2.97;;
50880;SDS011;36858;47.832;-3.800;2022-09-01T06:14:47;5.37;;;3.00;;
50880;SDS011;36858;47.832;-3.800;2022-09-01T06:17:16;5.63;;;3.00;;
50880;SDS011;36858;47.832;-3.800;2022-09-01T06:19:47;7.63;;;3.07;;
50880;SDS011;36858;47.832;-3.800;2022-09-01T06:22:14;5.27;;;3.10;;
50880;SDS011;36858;47.832;-3.800;2022-09-01T06:24:42;6.33;;;2.90;;
50880;SDS011;36858;47.832;-3.800;2022-09-01T06:27:12;6.13;;;2.87;;
50880;SDS011;36858;47.832;-3.800;2022-09-01T06:29:43;4.13;;;3.23;;
50880;SDS011;36858;47.832;-3.800;2022-09-01T06:32:10;6.13;;;3.10;;
50880;SDS011;36858;47.832;-3.800;2022-09-01T06:34:38;5.20;;;3.03;;
50880;SDS011;36858;47.832;-3.800;2022-09-01T06:37:08;6.60;;;3.83;;
50880;SDS011;36858;47.832;-3.800;2022-09-01T06:39:38;4.57;;;2.90;;
50880;SDS011;36858;47.832;-3.800;2022-09-01T06:42:05;3.50;;;3.07;;
50880;SDS011;36858;47.832;-3.800;2022-09-01T06:44:34;4.03;;;3.27;;
50880;SDS011;36858;47.832;-3.800;2022-09-01T06:47:06;4.50;;;3.30;;
50880;SDS011;36858;47.832;-3.800;2022-09-01T06:49:34;5.37;;;3.70;;
50880;SDS011;36858;47.832;-3.800;2022-09-01T06:52:02;4.73;;;3.50;;
50880;SDS011;36858;47.832;-3.800;2022-09-01T06:54:30;4.77;;;3.40;;
50880;SDS011;36858;47.832;-3.800;2022-09-01T06:57:01;6.07;;;3.90;;
50880;SDS011;36858;47.832;-3.800;2022-09-01T06:59:49;6.63;;;3.80;;
50880;SDS011;36858;47.832;-3.800;2022-09-01T07:02:19;6.03;;;4.10;;
50880;SDS011;36858;47.832;-3.800;2022-09-01T07:04:52;4.63;;;3.60;;
50880;SDS011;36858;47.832;-3.800;2022-09-01T07:07:19;5.40;;;4.33;;
50880;SDS011;36858;47.832;-3.800;2022-09-01T07:10:07;5.93;;;4.10;;
50880;SDS011;36858;47.832;-3.800;2022-09-01T07:12:52;7.23;;;3.83;;
50880;SDS011;36858;47.832;-3.800;2022-09-01T07:15:38;7.37;;;4.13;;
50880;SDS011;36858;47.832;-3.800;2022-09-01T07:18:26;5.80;;;4.27;;
50880;SDS011;36858;47.832;-3.800;2022-09-01T07:20:54;10.03;;;4.97;;
50880;SDS011;36858;47.832;-3.800;2022-09-01T07:23:41;7.17;;;4.93;;
50880;SDS011;36858;47.832;-3.800;2022-09-01T07:26:29;7.43;;;5.50;;
50880;SDS011;36858;47.832;-3.800;2022-09-01T07:28:56;9.03;;;6.07;;
50880;SDS011;36858;47.832;-3.800;2022-09-01T07:31:31;5.77;;;5.07;;
50880;SDS011;36858;47.832;-3.800;2022-09-01T07:34:24;11.03;;;4.87;;
50880;SDS011;36858;47.832;-3.800;2022-09-01T07:37:11;8.90;;;5.17;;
50880;SDS011;36858;47.832;-3.800;2022-09-01T07:39:59;16.33;;;6.33;;
50880;SDS011;36858;47.832;-3.800;2022-09-01T07:42:52;6.37;;;5.57;;
50880;SDS011;36858;47.832;-3.800;2022-09-01T07:45:28;6.83;;;5.47;;
50880;SDS011;36858;47.832;-3.800;2022-09-01T07:47:56;7.83;;;4.80;;
50880;SDS011;36858;47.832;-3.800;2022-09-01T07:50:29;11.80;;;5.43;;
50880;SDS011;36858;47.832;-3.800;2022-09-01T07:53:16;6.40;;;5.10;;
50880;SDS011;36858;47.832;-3.800;2022-09-01T07:55:51;10.17;;;4.17;;
50880;SDS011;36858;47.832;-3.800;2022-09-01T07:58:20;7.73;;;5.57;;
50880;SDS011;36858;47.832;-3.800;2022-09-01T08:00:50;7.07;;;4.23;;
50880;SDS011;36858;47.832;-3.800;2022-09-01T08:03:19;8.20;;;4.10;;
50880;SDS011;36858;47.832;-3.800;2022-09-01T08:05:48;4.23;;;3.77;;
50880;SDS011;36858;47.832;-3.800;2022-09-01T08:08:19;5.13;;;3.90;;
50880;SDS011;36858;47.832;-3.800;2022-09-01T08:10:53;8.03;;;4.53;;
50880;SDS011;36858;47.832;-3.800;2022-09-01T08:13:29;6.10;;;4.50;;
50880;SDS011;36858;47.832;-3.800;2022-09-01T08:16:03;4.27;;;3.87;;
50880;SDS011;36858;47.832;-3.800;2022-09-01T08:18:33;5.07;;;3.87;;
50880;SDS011;36858;47.832;-3.800;2022-09-01T08:21:16;5.97;;;3.83;;
50880;SDS011;36858;47.832;-3.800;2022-09-01T08:23:44;7.30;;;3.57;;
50880;SDS011;36858;47.832;-3.800;2022-09-01T08:26:14;5.43;;;3.70;;
50880;SDS011;36858;47.832;-3.800;2022-09-01T08:28:42;6.97;;;3.57;;
50880;SDS011;36858;47.832;-3.800;2022-09-01T08:31:20;8.50;;;3.33;;
50880;SDS011;36858;47.832;-3.800;2022-09-01T08:33:49;7.43;;;3.57;;
50880;SDS011;36858;47.832;-3.800;2022-09-01T08:36:16;4.80;;;4.00;;
50880;SDS011;36858;47.832;-3.800;2022-09-01T08:38:49;3.97;;;3.20;;
50880;SDS011;36858;47.832;-3.800;2022-09-01T08:44:15;5.13;;;2.80;;
50880;SDS011;36858;47.832;-3.800;2022-09-01T08:46:48;6.33;;;3.57;;
50880;SDS011;36858;47.832;-3.800;2022-09-01T08:49:29;4.27;;;3.17;;
50880;SDS011;36858;47.832;-3.800;2022-09-01T08:55:35;4.37;;;3.27;;
50880;SDS011;36858;47.832;-3.800;2022-09-01T08:58:05;5.50;;;3.00;;
50880;SDS011;36858;47.832;-3.800;2022-09-01T09:00:37;6.77;;;3.70;;
50880;SDS011;36858;47.832;-3.800;2022-09-01T09:03:13;7.67;;;3.23;;
50880;SDS011;36858;47.832;-3.800;2022-09-01T09:08:52;7.23;;;3.20;;
50880;SDS011;36858;47.832;-3.800;2022-09-01T09:11:34;6.10;;;3.50;;
50880;SDS011;36858;47.832;-3.800;2022-09-01T09:14:31;4.77;;;3.33;;
50880;SDS011;36858;47.832;-3.800;2022-09-01T09:17:02;4.13;;;3.03;;
50880;SDS011;36858;47.832;-3.800;2022-09-01T09:19:31;4.23;;;3.13;;
50880;SDS011;36858;47.832;-3.800;2022-09-01T09:22:02;6.27;;;3.03;;
50880;SDS011;36858;47.832;-3.800;2022-09-01T09:30:00;8.53;;;3.03;;
50880;SDS011;36858;47.832;-3.800;2022-09-01T09:32:53;6.27;;;3.00;;
50880;SDS011;36858;47.832;-3.800;2022-09-01T09:35:42;6.43;;;2.77;;
50880;SDS011;36858;47.832;-3.800;2022-09-01T09:41:00;6.60;;;3.27;;
50880;SDS011;36858;47.832;-3.800;2022-09-01T09:43:55;13.20;;;4.43;;
50880;SDS011;36858;47.832;-3.800;2022-09-01T09:57:26;9.37;;;3.30;;
50880;SDS011;36858;47.832;-3.800;2022-09-01T10:00:05;4.87;;;3.10;;
50880;SDS011;36858;47.832;-3.800;2022-09-01T10:02:43;6.37;;;3.40;;
50880;SDS011;36858;47.832;-3.800;2022-09-01T10:08:00;5.83;;;2.73;;
50880;SDS011;36858;47.832;-3.800;2022-09-01T10:13:23;5.90;;;2.87;;
50880;SDS011;36858;47.832;-3.800;2022-09-01T10:15:53;6.27;;;3.47;;
50880;SDS011;36858;47.832;-3.800;2022-09-01T10:18:24;3.73;;;2.67;;
50880;SDS011;36858;47.832;-3.800;2022-09-01T10:21:03;4.17;;;2.63;;
50880;SDS011;36858;47.832;-3.800;2022-09-01T10:23:35;2.90;;;2.50;;
50880;SDS011;36858;47.832;-3.800;2022-09-01T10:26:48;4.60;;;2.43;;
50880;SDS011;36858;47.832;-3.800;2022-09-01T10:31:38;5.70;;;2.80;;
50880;SDS011;36858;47.832;-3.800;2022-09-01T10:34:05;4.47;;;2.40;;
50880;SDS011;36858;47.832;-3.800;2022-09-01T10:36:33;4.03;;;2.97;;
50880;SDS011;36858;47.832;-3.800;2022-09-01T10:39:03;2.83;;;2.63;;
50880;SDS011;36858;47.832;-3.800;2022-09-01T10:44:29;6.57;;;3.10;;
50880;SDS011;36858;47.832;-3.800;2022-09-01T10:47:12;4.40;;;3.10;;
50880;SDS011;36858;47.832;-3.800;2022-09-01T10:49:56;5.33;;;2.77;;
50880;SDS011;36858;47.832;-3.800;2022-09-01T10:58:11;3.33;;;2.40;;
50880;SDS011;36858;47.832;-3.800;2022-09-01T11:01:05;3.30;;;2.63;;
50880;SDS011;36858;47.832;-3.800;2022-09-01T11:03:37;4.00;;;2.43;;
50880;SDS011;36858;47.832;-3.800;2022-09-01T11:09:33;4.97;;;2.63;;
50880;SDS011;36858;47.832;-3.800;2022-09-01T11:14:59;4.30;;;2.27;;
50880;SDS011;36858;47.832;-3.800;2022-09-01T11:17:29;3.03;;;2.30;;
50880;SDS011;36858;47.832;-3.800;2022-09-01T11:20:08;5.43;;;2.30;;
50880;SDS011;36858;47.832;-3.800;2022-09-01T11:38:56;6.23;;;3.20;;
50880;SDS011;36858;47.832;-3.800;2022-09-01T11:41:49;5.73;;;3.00;;
50880;SDS011;36858;47.832;-3.800;2022-09-01T11:44:23;5.60;;;3.00;;
50880;SDS011;36858;47.832;-3.800;2022-09-01T11:46:56;5.30;;;3.37;;
50880;SDS011;36858;47.832;-3.800;2022-09-01T11:49:29;3.80;;;2.93;;
50880;SDS011;36858;47.832;-3.800;2022-09-01T11:51:58;5.10;;;3.37;;
50880;SDS011;36858;47.832;-3.800;2022-09-01T11:54:27;5.43;;;3.20;;
50880;SDS011;36858;47.832;-3.800;2022-09-01T11:56:55;5.17;;;3.00;;
50880;SDS011;36858;47.832;-3.800;2022-09-01T11:59:29;6.07;;;3.17;;
50880;SDS011;36858;47.832;-3.800;2022-09-01T12:02:00;4.90;;;3.17;;
50880;SDS011;36858;47.832;-3.800;2022-09-01T12:04:31;6.80;;;3.33;;
50880;SDS011;36858;47.832;-3.800;2022-09-01T12:07:10;3.83;;;3.40;;
50880;SDS011;36858;47.832;-3.800;2022-09-01T12:09:43;5.70;;;3.30;;
50880;SDS011;36858;47.832;-3.800;2022-09-01T12:12:25;6.90;;;3.77;;
50880;SDS011;36858;47.832;-3.800;2022-09-01T12:14:59;7.03;;;3.47;;
50880;SDS011;36858;47.832;-3.800;2022-09-01T12:17:32;6.07;;;3.90;;
50880;SDS011;36858;47.832;-3.800;2022-09-01T12:22:54;7.73;;;4.33;;
50880;SDS011;36858;47.832;-3.800;2022-09-01T12:27:53;5.93;;;3.87;;
50880;SDS011;36858;47.832;-3.800;2022-09-01T12:30:24;13.83;;;4.33;;
50880;SDS011;36858;47.832;-3.800;2022-09-01T12:32:51;6.13;;;3.77;;
50880;SDS011;36858;47.832;-3.800;2022-09-01T12:35:39;4.43;;;3.30;;
50880;SDS011;36858;47.832;-3.800;2022-09-01T12:40:47;6.73;;;3.63;;
50880;SDS011;36858;47.832;-3.800;2022-09-01T12:43:35;4.67;;;3.07;;
50880;SDS011;36858;47.832;-3.800;2022-09-01T12:46:05;7.47;;;3.50;;
50880;SDS011;36858;47.832;-3.800;2022-09-01T12:48:37;5.80;;;3.27;;
50880;SDS011;36858;47.832;-3.800;2022-09-01T12:51:14;6.60;;;3.60;;
50880;SDS011;36858;47.832;-3.800;2022-09-01T12:53:54;7.10;;;3.40;;
50880;SDS011;36858;47.832;-3.800;2022-09-01T12:56:28;4.77;;;2.87;;
50880;SDS011;36858;47.832;-3.800;2022-09-01T12:59:13;7.93;;;3.10;;
50880;SDS011;36858;47.832;-3.800;2022-09-01T13:04:54;7.23;;;3.10;;
50880;SDS011;36858;47.832;-3.800;2022-09-01T13:07:21;9.83;;;3.33;;
50880;SDS011;36858;47.832;-3.800;2022-09-01T13:09:48;5.63;;;2.63;;
50880;SDS011;36858;47.832;-3.800;2022-09-01T13:12:16;9.00;;;2.60;;
50880;SDS011;36858;47.832;-3.800;2022-09-01T13:14:46;7.87;;;3.40;;
50880;SDS011;36858;47.832;-3.800;2022-09-01T13:17:13;7.60;;;2.43;;
50880;SDS011;36858;47.832;-3.800;2022-09-01T13:19:40;4.93;;;2.53;;
50880;SDS011;36858;47.832;-3.800;2022-09-01T13:22:07;5.17;;;2.23;;
50880;SDS011;36858;47.832;-3.800;2022-09-01T13:24:35;5.50;;;2.37;;
50880;SDS011;36858;47.832;-3.800;2022-09-01T13:27:02;5.37;;;2.63;;
50880;SDS011;36858;47.832;-3.800;2022-09-01T13:29:47;4.73;;;2.10;;
50880;SDS011;36858;47.832;-3.800;2022-09-01T13:32:15;5.20;;;2.20;;
50880;SDS011;36858;47.832;-3.800;2022-09-01T13:34:45;4.90;;;2.20;;
50880;SDS011;36858;47.832;-3.800;2022-09-01T13:37:15;4.60;;;2.20;;
50880;SDS011;36858;47.832;-3.800;2022-09-01T13:39:43;5.23;;;2.30;;
50880;SDS011;36858;47.832;-3.800;2022-09-01T13:42:11;6.73;;;2.50;;
50880;SDS011;36858;47.832;-3.800;2022-09-01T13:44:41;3.63;;;1.97;;
50880;SDS011;36858;47.832;-3.800;2022-09-01T13:47:09;4.13;;;1.53;;
50880;SDS011;36858;47.832;-3.800;2022-09-01T13:49:57;4.20;;;1.60;;
50880;SDS011;36858;47.832;-3.800;2022-09-01T13:52:39;4.53;;;2.10;;
50880;SDS011;36858;47.832;-3.800;2022-09-01T13:55:12;3.27;;;1.80;;
50880;SDS011;36858;47.832;-3.800;2022-09-01T13:57:40;1.80;;;1.40;;
50880;SDS011;36858;47.832;-3.800;2022-09-01T14:00:10;2.90;;;1.57;;
50880;SDS011;36858;47.832;-3.800;2022-09-01T14:02:40;2.23;;;1.37;;
50880;SDS011;36858;47.832;-3.800;2022-09-01T14:05:08;4.07;;;1.20;;
50880;SDS011;36858;47.832;-3.800;2022-09-01T14:07:35;1.87;;;1.07;;
50880;SDS011;36858;47.832;-3.800;2022-09-01T14:10:02;0.70;;;0.70;;
50880;SDS011;36858;47.832;-3.800;2022-09-01T14:12:30;2.97;;;0.90;;
50880;SDS011;36858;47.832;-3.800;2022-09-01T14:14:57;1.57;;;1.07;;
50880;SDS011;36858;47.832;-3.800;2022-09-01T14:17:43;1.60;;;0.93;;
50880;SDS011;36858;47.832;-3.800;2022-09-01T14:20:13;1.23;;;1.10;;
50880;SDS011;36858;47.832;-3.800;2022-09-01T14:22:44;2.43;;;0.90;;
50880;SDS011;36858;47.832;-3.800;2022-09-01T14:25:12;1.87;;;1.10;;
50880;SDS011;36858;47.832;-3.800;2022-09-01T14:27:39;2.07;;;0.97;;
50880;SDS011;36858;47.832;-3.800;2022-09-01T14:30:10;1.67;;;0.80;;
50880;SDS011;36858;47.832;-3.800;2022-09-01T14:32:57;1.37;;;0.80;;
50880;SDS011;36858;47.832;-3.800;2022-09-01T14:35:27;2.73;;;0.87;;
50880;SDS011;36858;47.832;-3.800;2022-09-01T14:37:56;2.63;;;0.87;;
50880;SDS011;36858;47.832;-3.800;2022-09-01T14:40:24;3.17;;;1.43;;
50880;SDS011;36858;47.832;-3.800;2022-09-01T14:42:51;3.90;;;1.00;;
50880;SDS011;36858;47.832;-3.800;2022-09-01T14:45:19;2.20;;;1.03;;
50880;SDS011;36858;47.832;-3.800;2022-09-01T14:47:49;2.63;;;1.33;;
50880;SDS011;36858;47.832;-3.800;2022-09-01T14:50:19;3.13;;;1.00;;
50880;SDS011;36858;47.832;-3.800;2022-09-01T14:52:49;2.33;;;1.23;;
50880;SDS011;36858;47.832;-3.800;2022-09-01T14:55:20;1.17;;;0.87;;
50880;SDS011;36858;47.832;-3.800;2022-09-01T14:57:49;1.73;;;0.93;;
50880;SDS011;36858;47.832;-3.800;2022-09-01T15:00:16;3.90;;;1.60;;
50880;SDS011;36858;47.832;-3.800;2022-09-01T15:02:44;2.30;;;1.10;;
50880;SDS011;36858;47.832;-3.800;2022-09-01T15:05:11;1.13;;;0.83;;
50880;SDS011;36858;47.832;-3.800;2022-09-01T15:07:39;2.40;;;1.00;;
50880;SDS011;36858;47.832;-3.800;2022-09-01T15:10:08;3.87;;;0.93;;
50880;SDS011;36858;47.832;-3.800;2022-09-01T15:12:45;2.87;;;0.90;;
50880;SDS011;36858;47.832;-3.800;2022-09-01T15:15:12;1.27;;;0.97;;
50880;SDS011;36858;47.832;-3.800;2022-09-01T15:17:39;2.33;;;1.07;;
50880;SDS011;36858;47.832;-3.800;2022-09-01T15:20:11;2.20;;;1.20;;
50880;SDS011;36858;47.832;-3.800;2022-09-01T15:22:57;1.57;;;1.03;;
50880;SDS011;36858;47.832;-3.800;2022-09-01T15:25:24;1.93;;;1.00;;
50880;SDS011;36858;47.832;-3.800;2022-09-01T15:27:51;2.33;;;0.97;;
50880;SDS011;36858;47.832;-3.800;2022-09-01T15:30:18;2.63;;;1.10;;
50880;SDS011;36858;47.832;-3.800;2022-09-01T15:32:48;4.00;;;1.13;;
50880;SDS011;36858;47.832;-3.800;2022-09-01T15:35:17;1.47;;;0.90;;
50880;SDS011;36858;47.832;-3.800;2022-09-01T15:37:46;1.20;;;1.00;;
50880;SDS011;36858;47.832;-3.800;2022-09-01T15:40:13;2.43;;;1.10;;
50880;SDS011;36858;47.832;-3.800;2022-09-01T15:42:40;1.27;;;0.87;;
50880;SDS011;36858;47.832;-3.800;2022-09-01T15:45:09;1.80;;;0.93;;
50880;SDS011;36858;47.832;-3.800;2022-09-01T15:47:38;2.07;;;1.07;;
50880;SDS011;36858;47.832;-3.800;2022-09-01T15:50:11;1.33;;;0.83;;
50880;SDS011;36858;47.832;-3.800;2022-09-01T15:52:54;3.00;;;1.10;;
50880;SDS011;36858;47.832;-3.800;2022-09-01T15:55:28;2.27;;;1.13;;
50880;SDS011;36858;47.832;-3.800;2022-09-01T15:57:56;2.40;;;1.00;;
50880;SDS011;36858;47.832;-3.800;2022-09-01T16:00:24;3.27;;;1.33;;
50880;SDS011;36858;47.832;-3.800;2022-09-01T16:02:52;1.70;;;1.03;;
50880;SDS011;36858;47.832;-3.800;2022-09-01T16:05:22;5.27;;;1.40;;
50880;SDS011;36858;47.832;-3.800;2022-09-01T16:07:50;2.37;;;1.30;;
50880;SDS011;36858;47.832;-3.800;2022-09-01T16:10:18;2.73;;;1.43;;
50880;SDS011;36858;47.832;-3.800;2022-09-01T16:12:45;2.07;;;1.20;;
50880;SDS011;36858;47.832;-3.800;2022-09-01T16:15:14;3.00;;;1.47;;
50880;SDS011;36858;47.832;-3.800;2022-09-01T16:18:04;2.87;;;1.17;;
50880;SDS011;36858;47.832;-3.800;2022-09-01T16:20:36;2.40;;;1.27;;
50880;SDS011;36858;47.832;-3.800;2022-09-01T16:25:42;2.10;;;1.30;;
50880;SDS011;36858;47.832;-3.800;2022-09-01T16:28:29;2.23;;;1.33;;